Notice: Undefined index: language in /home/u908952976/domains/airgaviota-va.com/public_html/vam/index.php on line 25
AirGaviota-VA

... VIRTUAL FLIGHT...OUR PASSION



 METAR AND TAF INFORMATION

Deprecated: The each() function is deprecated. This message will be suppressed on further calls in /home/u908952976/domains/airgaviota-va.com/public_html/vam/helpers/get_metar.php on line 20
METAR FOR LHDC
ADDS - METARS form results

(0013 UTC 01 August 2021)
Data provider http://aviationweather.gov/metar/data/
 
METAR text: LHDC 312345Z AUTO VRB02KT 6000 NCD 20/19 Q1011
Conditions at: LHDC (DEBRECEN AIRPORT, HU) observed 2345 UTC 31 July 2021
Temperature: 20.0°C (68°F)
Dewpoint: 19.0°C (66°F) [RH = 94%]
Pressure (altimeter): 29.85 inches Hg (1011.0 mb)
Winds: variable direction winds at 2 MPH (2 knots; 1.0 m/s)
Visibility: 4 miles ( 6 km)
Ceiling: at least 12,000 feet AGL
Clouds: sky clear below 12,000 feet AGL
Weather: no significant weather observed at this time

METAR text: LHDC 312315Z AUTO 05003KT 7000 NCD 20/19 Q1011
Conditions at: LHDC (DEBRECEN AIRPORT, HU) observed 2315 UTC 31 July 2021
Temperature: 20.0°C (68°F)
Dewpoint: 19.0°C (66°F) [RH = 94%]
Pressure (altimeter): 29.85 inches Hg (1011.0 mb)
Winds: from the NE (50 degrees) at 3 MPH (3 knots; 1.5 m/s)
Visibility: 4 miles ( 7 km)
Ceiling: at least 12,000 feet AGL
Clouds: sky clear below 12,000 feet AGL
Weather: no significant weather observed at this time

Forecast for: LHDC (DEBRECEN AIRPORT, HU)
Text: TAF LHDC 311715Z 3118/0103 29008KT CAVOK
Forecast period: 1800 UTC 31 July 2021 to 0300 UTC 01 August 2021
Forecast type: FROM: standard forecast or significant change
Winds: from the WNW (290 degrees) at 9 MPH (8 knots; 4.1 m/s)
Visibility: 6 or more miles (10+ km)
Ceiling: unknown
Clouds: missing
Weather: NSW  (no significant weather)
Text: BECMG 3118/3121 12005KT
Forecast period: 1800 UTC 31 July 2021 to 0300 UTC 01 August 2021
Forecast type: BECOMING: Conditions expected to become as follows by 2100 UTC 31 July 2021
Winds: from the ESE (120 degrees) at 6 MPH (5 knots; 2.6 m/s)
Visibility: 6 or more miles (10+ km)
Ceiling: unknown
Clouds: missing
Weather: NSW  (no significant weather)

 AIRPORT MAP

 RUNWAY INFORMATION
Runway 05L Runway length 8087 ft Runway width 230 ft
Runway elevation 0 ft Runway displaced threshold 0 ft Runway heading 48
Runway 23R Runway length 8087 ft Runway width 230 ft
Runway elevation 0 ft Runway displaced threshold 0 ft Runway heading 228
Runway 05R Runway length 8196 ft Runway width 131 ft
Runway elevation 355 ft Runway displaced threshold 0 ft Runway heading 48
Runway 23L Runway length 8196 ft Runway width 131 ft
Runway elevation 359 ft Runway displaced threshold 979 ft Runway heading 228

 AIRPORT FREQUENCIES
Type AFIS Name INFO Frequency 125.9 MHZ
Type INFO Name BUDAPEST I Frequency 133.3 MHZ

 AIRPORT NEAR NAVIGATION AIDS
Type NDB Name Debrecen Frequency 326 KHZ
Type NDB Name Debrecen Frequency 295 KHZ